Time;durP1;ratioP1;P1;durP2;ratioP2;P2;SDS_P1;SDS_P2;PMS_P1;PMS_P2;Temp;Humidity;BMP_temperature;BMP_pressure;BME280_temperature;BME280_humidity;BME280_pressure;Samples;Min_cycle;Max_cycle;Signal;HPM_P1;HPM_P2
2023/04/18 00:02:02;;;;;;;0.00;0.00;;;;;;;14.63;61.92;102398.25;7347453;19;20601;-60
2023/04/18 00:04:28;;;;;;;0.10;0.10;;;;;;;14.60;61.93;102387.81;7343423;19;20022;-61
2023/04/18 00:06:53;;;;;;;0.00;0.00;;;;;;;14.60;61.87;102392.16;7342247;19;20559;-61
2023/04/18 00:09:19;;;;;;;0.00;0.00;;;;;;;14.68;61.63;102399.09;7344350;19;20821;-60
2023/04/18 00:11:44;;;;;;;0.00;0.00;;;;;;;14.69;62.16;102398.19;7344348;19;20078;-61
2023/04/18 00:14:10;;;;;;;0.00;0.00;;;;;;;14.71;62.03;102406.06;7346326;19;20014;-61
2023/04/18 00:16:36;;;;;;;0.10;0.10;;;;;;;14.74;62.03;102395.50;7345661;19;20085;-61
2023/04/18 00:19:03;;;;;;;0.10;0.10;;;;;;;14.75;61.46;102398.13;7346617;19;20030;-61
2023/04/18 00:21:30;;;;;;;0.05;0.05;;;;;;;14.76;61.33;102394.59;7344702;19;20039;-60
2023/04/18 00:23:56;;;;;;;0.00;0.00;;;;;;;14.81;61.33;102401.56;7347060;19;20632;-61
2023/04/18 00:26:21;;;;;;;0.00;0.00;;;;;;;14.81;61.37;102398.94;7340504;19;20951;-61
2023/04/18 00:28:47;;;;;;;0.10;0.10;;;;;;;14.81;61.92;102393.69;7348327;19;20022;-61
2023/04/18 00:31:12;;;;;;;0.10;0.10;;;;;;;14.83;61.45;102395.38;7344675;19;20014;-61
2023/04/18 00:33:37;;;;;;;0.10;0.10;;;;;;;14.84;61.43;102396.25;7346241;19;20006;-61
2023/04/18 00:36:03;;;;;;;0.10;0.10;;;;;;;14.84;61.62;102399.75;7345603;19;20003;-61
2023/04/18 00:38:29;;;;;;;0.10;0.10;;;;;;;14.84;61.34;102391.00;7346842;19;20011;-61
2023/04/18 00:40:54;;;;;;;0.10;0.10;;;;;;;14.85;61.82;102392.72;7343046;19;20569;-61
2023/04/18 00:43:23;;;;;;;0.10;0.10;;;;;;;14.87;61.43;102390.97;7346236;19;20059;-62
2023/04/18 00:45:48;;;;;;;0.00;0.00;;;;;;;14.85;61.55;102387.47;7344291;19;20897;-61
2023/04/18 00:48:14;;;;;;;0.10;0.10;;;;;;;14.86;61.96;102389.22;7345871;19;20704;-61
2023/04/18 00:50:40;;;;;;;0.10;0.10;;;;;;;14.72;61.65;102363.97;7343462;19;20095;-61
2023/04/18 00:53:07;;;;;;;0.10;0.10;;;;;;;14.86;61.68;102391.84;7344927;19;20015;-61
2023/04/18 00:55:33;;;;;;;0.10;0.10;;;;;;;14.86;61.58;102389.22;7341250;19;20881;-61
2023/04/18 00:57:59;;;;;;;0.00;0.00;;;;;;;14.86;61.47;102391.84;7342748;19;20029;-60
2023/04/18 01:00:24;;;;;;;0.00;0.00;;;;;;;14.87;61.46;102397.09;7343163;19;20010;-60
2023/04/18 01:02:52;;;;;;;0.10;0.10;;;;;;;14.86;61.66;102394.50;7342541;19;20038;-61
2023/04/18 01:05:17;;;;;;;;;;;;;;;14.91;59.82;102393.53;7347089;19;20027;-61
2023/04/18 01:07:43;;;;;;;0.00;0.00;;;;;;;14.86;61.73;102389.22;7339789;19;19986;-61
2023/04/18 01:10:09;;;;;;;0.00;0.00;;;;;;;14.88;61.76;102393.56;7340243;19;20505;-60
2023/04/18 01:12:36;;;;;;;0.10;0.10;;;;;;;14.87;61.37;102386.56;7343764;19;20025;-61
2023/04/18 01:15:03;;;;;;;0.00;0.00;;;;;;;14.87;61.54;102394.47;7342174;19;20760;-61
2023/04/18 01:17:28;;;;;;;0.00;0.00;;;;;;;14.87;61.70;102385.69;7343608;19;20042;-60
2023/04/18 01:19:55;;;;;;;0.03;0.03;;;;;;;14.86;62.01;102390.09;7344684;19;20542;-60
2023/04/18 01:22:21;;;;;;;0.03;0.03;;;;;;;14.87;61.64;102388.34;7343178;19;20090;-61
2023/04/18 01:24:46;;;;;;;0.00;0.00;;;;;;;14.87;61.53;102385.69;7341155;19;20015;-61
2023/04/18 01:27:12;;;;;;;0.05;0.05;;;;;;;14.81;61.56;102377.91;7346475;19;20034;-61
2023/04/18 01:29:38;;;;;;;0.03;0.03;;;;;;;14.85;61.65;102385.72;7344454;19;20030;-60
2023/04/18 01:32:04;;;;;;;0.10;0.10;;;;;;;14.85;61.85;102376.94;7340828;19;20904;-62
2023/04/18 01:34:30;;;;;;;0.00;0.00;;;;;;;14.86;62.20;102386.59;7345293;19;20352;-61
2023/04/18 01:36:56;;;;;;;0.00;0.00;;;;;;;14.85;61.86;102374.31;7340297;19;20006;-61
2023/04/18 01:39:21;;;;;;;0.00;0.00;;;;;;;14.83;61.85;102373.47;7344105;19;20942;-61
2023/04/18 01:41:47;;;;;;;0.00;0.00;;;;;;;14.86;61.81;102376.06;7340817;19;20590;-61
2023/04/18 01:44:12;;;;;;;0.10;0.10;;;;;;;14.85;62.00;102379.56;7346166;19;20879;-61
2023/04/18 01:46:38;;;;;;;0.00;0.00;;;;;;;14.83;61.93;102376.09;7346395;19;20022;-61
2023/04/18 01:49:04;;;;;;;0.00;0.00;;;;;;;14.82;61.91;102377.88;7345303;19;20015;-61
2023/04/18 01:51:30;;;;;;;0.00;0.00;;;;;;;14.82;62.23;102372.59;7344933;19;20012;-61
2023/04/18 01:53:55;;;;;;;0.10;0.10;;;;;;;14.68;62.13;102353.50;7344886;19;20018;-60
2023/04/18 01:56:21;;;;;;;0.10;0.10;;;;;;;14.79;62.04;102370.88;7346692;19;20337;-61
2023/04/18 01:58:46;;;;;;;0.10;0.10;;;;;;;14.78;62.17;102371.78;7334249;19;20011;-61
2023/04/18 02:01:12;;;;;;;0.00;0.00;;;;;;;14.78;62.50;102371.78;7348668;19;20011;-61
2023/04/18 02:03:37;;;;;;;0.00;0.00;;;;;;;14.66;62.28;102347.41;7343476;19;20013;-61
2023/04/18 02:06:04;;;;;;;0.00;0.00;;;;;;;14.76;62.30;102367.44;7346235;19;20113;-61
2023/04/18 02:08:31;;;;;;;0.00;0.00;;;;;;;14.76;62.66;102367.44;7346723;19;20017;-61
2023/04/18 02:10:57;;;;;;;0.10;0.10;;;;;;;14.67;62.47;102347.38;7348005;19;20455;-61
2023/04/18 02:13:23;;;;;;;0.10;0.10;;;;;;;14.74;62.44;102364.81;7343848;19;20028;-60
2023/04/18 02:15:48;;;;;;;0.00;0.00;;;;;;;14.72;62.69;102363.09;7346857;19;20022;-61
2023/04/18 02:18:14;;;;;;;0.00;0.00;;;;;;;14.73;62.47;102368.34;7347542;19;20636;-61
2023/04/18 02:20:40;;;;;;;0.00;0.00;;;;;;;14.73;62.30;102365.69;7347139;19;20699;-61
2023/04/18 02:23:05;;;;;;;0.10;0.10;;;;;;;14.72;62.50;102360.47;7346915;19;20006;-60
2023/04/18 02:25:31;;;;;;;0.03;0.03;;;;;;;14.58;62.30;102337.00;7346843;19;19999;-61
2023/04/18 02:27:57;;;;;;;0.00;0.00;;;;;;;14.66;62.54;102353.53;7350273;19;20792;-61
2023/04/18 02:30:24;;;;;;;0.00;0.00;;;;;;;14.71;62.54;102364.88;7354985;19;20010;-61
2023/04/18 02:32:51;;;;;;;0.03;0.03;;;;;;;14.70;62.45;102363.13;7354084;19;20030;-61
2023/04/18 02:35:17;;;;;;;0.00;0.00;;;;;;;14.69;62.84;102356.13;7353301;19;20019;-61
2023/04/18 02:37:42;;;;;;;0.00;0.00;;;;;;;14.70;62.42;102364.88;7353458;19;20018;-61
2023/04/18 02:40:08;;;;;;;0.05;0.05;;;;;;;14.70;62.79;102367.50;7352477;19;20026;-61
2023/04/18 02:42:33;;;;;;;0.00;0.00;;;;;;;14.69;62.81;102361.38;7354403;19;20031;-61
2023/04/18 02:44:59;;;;;;;0.00;0.00;;;;;;;14.70;62.69;102359.59;7348011;19;20014;-61
2023/04/18 02:47:24;;;;;;;0.00;0.00;;;;;;;14.71;62.44;102366.63;7354339;19;20010;-61
2023/04/18 02:49:49;;;;;;;0.00;0.00;;;;;;;14.70;62.61;102365.75;7348217;19;20003;-61
2023/04/18 02:52:15;;;;;;;0.08;0.08;;;;;;;14.69;62.35;102360.50;7355376;19;20014;-60
2023/04/18 02:54:40;;;;;;;0.10;0.10;;;;;;;14.70;62.47;102371.03;7354912;19;20011;-60
2023/04/18 02:57:06;;;;;;;0.10;0.10;;;;;;;14.61;62.38;102355.38;7356299;19;20047;-61
2023/04/18 02:59:31;;;;;;;0.08;0.08;;;;;;;14.70;62.55;102367.50;7356768;19;20011;-61
2023/04/18 03:01:57;;;;;;;0.00;0.00;;;;;;;14.69;62.82;102364.00;7355684;19;20034;-61
2023/04/18 03:04:22;;;;;;;0.00;0.00;;;;;;;14.68;62.64;102369.28;7334576;19;20601;-61
2023/04/18 03:06:48;;;;;;;0.10;0.10;;;;;;;14.69;62.48;102365.75;7354685;19;20006;-61
2023/04/18 03:09:15;;;;;;;0.00;0.00;;;;;;;14.69;62.74;102366.63;7356872;19;20022;-61
2023/04/18 03:11:41;;;;;;;0.10;0.10;;;;;;;14.68;62.95;102364.91;7354123;19;20026;-61
2023/04/18 03:14:06;;;;;;;0.00;0.00;;;;;;;14.68;62.58;102359.63;7354005;19;20034;-61
2023/04/18 03:16:32;;;;;;;0.00;0.00;;;;;;;14.68;62.51;102364.91;7352732;19;20082;-61
2023/04/18 03:18:58;;;;;;;0.00;0.00;;;;;;;14.68;62.66;102358.78;7340092;19;20026;-61
2023/04/18 03:21:23;;;;;;;0.10;0.10;;;;;;;14.67;62.66;102368.41;7357035;19;20463;-61
2023/04/18 03:23:49;;;;;;;0.00;0.00;;;;;;;14.68;63.13;102364.91;7354954;19;20010;-61
2023/04/18 03:26:14;;;;;;;0.00;0.00;;;;;;;14.69;62.82;102363.13;7354804;19;20035;-61
2023/04/18 03:28:40;;;;;;;0.00;0.00;;;;;;;14.68;62.96;102364.91;7357707;19;20121;-60
2023/04/18 03:31:06;;;;;;;0.10;0.10;;;;;;;14.55;62.91;102339.69;7358151;19;20018;-61
2023/04/18 03:33:31;;;;;;;0.00;0.00;;;;;;;14.68;62.83;102364.91;7356807;19;20014;-61
2023/04/18 03:35:56;;;;;;;0.10;0.10;;;;;;;14.67;63.09;102355.28;7355601;19;20049;-61
2023/04/18 03:38:22;;;;;;;0.10;0.10;;;;;;;14.69;63.05;102355.25;7354267;19;20618;-61
2023/04/18 03:40:47;;;;;;;0.00;0.00;;;;;;;14.69;63.07;102358.75;7356756;19;20029;-61
2023/04/18 03:43:13;;;;;;;0.10;0.10;;;;;;;14.70;62.80;102356.97;7346547;19;20017;-61
2023/04/18 03:45:38;;;;;;;0.00;0.00;;;;;;;14.69;62.86;102361.38;7357003;19;20030;-61
2023/04/18 03:48:05;;;;;;;0.03;0.03;;;;;;;14.64;62.89;102349.19;7350619;19;20025;-61
2023/04/18 03:50:30;;;;;;;0.10;0.10;;;;;;;14.69;63.08;102356.13;7360911;19;20026;-61
2023/04/18 03:52:55;;;;;;;0.05;0.05;;;;;;;14.69;63.25;102356.13;7358017;19;20042;-61
2023/04/18 03:55:21;;;;;;;0.00;0.00;;;;;;;14.70;62.89;102359.59;7358811;19;20018;-61
2023/04/18 03:57:46;;;;;;;0.10;0.10;;;;;;;14.70;63.09;102357.88;7356320;19;20029;-61
2023/04/18 04:00:13;;;;;;;0.00;0.00;;;;;;;14.71;63.05;102359.63;7361626;19;20010;-61
2023/04/18 04:02:38;;;;;;;0.10;0.10;;;;;;;14.69;63.26;102356.13;7357065;19;20019;-61
2023/04/18 04:05:04;;;;;;;0.00;0.00;;;;;;;14.69;62.77;102350.84;7359749;19;20032;-61
2023/04/18 04:07:31;;;;;;;0.08;0.08;;;;;;;14.72;63.20;102363.09;7355584;19;20608;-61
2023/04/18 04:10:00;;;;;;;0.00;0.00;;;;;;;14.72;63.30;102355.22;7359540;19;20364;-61
2023/04/18 04:12:26;;;;;;;0.10;0.10;;;;;;;14.72;63.46;102350.81;7354933;19;20018;-61
2023/04/18 04:14:51;;;;;;;0.00;0.00;;;;;;;14.72;63.38;102352.59;7360256;19;20055;-60
2023/04/18 04:17:17;;;;;;;0.00;0.00;;;;;;;14.75;63.03;102360.41;7356656;19;20029;-61
2023/04/18 04:19:42;;;;;;;0.10;0.10;;;;;;;14.75;63.19;102365.69;7359765;19;20010;-61
2023/04/18 04:22:08;;;;;;;0.03;0.03;;;;;;;14.74;63.00;102356.91;7359100;19;20022;-61
2023/04/18 04:24:34;;;;;;;0.08;0.08;;;;;;;14.73;63.03;102346.44;7356198;19;20006;-61
2023/04/18 04:27:00;;;;;;;0.00;0.00;;;;;;;14.74;63.06;102349.03;7359512;19;20014;-61
2023/04/18 04:29:27;;;;;;;0.00;0.00;;;;;;;14.75;63.52;102356.06;7357899;19;21345;-60
2023/04/18 04:31:53;;;;;;;0.10;0.10;;;;;;;14.75;63.19;102357.78;7356127;19;20014;-61
2023/04/18 04:34:19;;;;;;;0.00;0.00;;;;;;;14.74;63.15;102356.06;7357069;19;20018;-61
2023/04/18 04:36:45;;;;;;;0.08;0.08;;;;;;;14.73;63.36;102352.56;7357050;19;20035;-61
2023/04/18 04:39:11;;;;;;;0.10;0.10;;;;;;;14.74;63.53;102353.44;7358205;19;20077;-61
2023/04/18 04:41:39;;;;;;;0.10;0.10;;;;;;;14.74;63.19;102353.44;7360783;19;20002;-61
2023/04/18 04:44:05;;;;;;;0.00;0.00;;;;;;;14.69;63.49;102345.59;7357601;19;20010;-61
2023/04/18 04:46:32;;;;;;;0.10;0.10;;;;;;;14.63;63.30;102342.19;7358354;19;20011;-61
2023/04/18 04:48:58;;;;;;;0.00;0.00;;;;;;;14.71;63.39;102349.09;7353442;19;20010;-62
2023/04/18 04:51:24;;;;;;;0.10;0.10;;;;;;;14.60;63.23;102335.22;7353199;19;20847;-61
2023/04/18 04:53:50;;;;;;;0.00;0.00;;;;;;;14.66;63.65;102343.03;7358477;19;20018;-61
2023/04/18 04:56:15;;;;;;;0.00;0.00;;;;;;;14.67;63.13;102360.53;7359366;19;20003;-62
2023/04/18 04:58:40;;;;;;;0.10;0.10;;;;;;;14.64;62.97;102351.81;7358294;19;20471;-61
2023/04/18 05:01:07;;;;;;;0.10;0.10;;;;;;;14.63;63.14;102356.19;7354729;19;20301;-62
2023/04/18 05:03:33;;;;;;;0.00;0.00;;;;;;;14.63;63.03;102356.19;7359397;19;20028;-61
2023/04/18 05:05:59;;;;;;;0.10;0.10;;;;;;;14.61;63.04;102358.00;7355106;19;20014;-61
2023/04/18 05:08:25;;;;;;;0.00;0.00;;;;;;;14.60;63.60;102358.00;7355971;19;20022;-61
2023/04/18 05:10:50;;;;;;;0.00;0.00;;;;;;;14.57;63.30;102356.28;7353023;19;20026;-61
2023/04/18 05:13:16;;;;;;;0.10;0.10;;;;;;;14.57;63.17;102361.53;7357426;19;20023;-61
2023/04/18 05:15:41;;;;;;;0.00;0.00;;;;;;;14.51;63.32;102351.13;7353260;19;20018;-61
2023/04/18 05:18:07;;;;;;;0.00;0.00;;;;;;;14.53;63.30;102350.19;7356127;19;20007;-61
2023/04/18 05:20:32;;;;;;;0.00;0.00;;;;;;;14.52;63.28;102358.97;7353631;19;20014;-61
2023/04/18 05:22:58;;;;;;;0.10;0.10;;;;;;;14.52;63.36;102366.00;7352650;19;20018;-61
2023/04/18 05:25:23;;;;;;;0.10;0.10;;;;;;;14.50;63.56;102365.16;7358026;19;20463;-61
2023/04/18 05:27:49;;;;;;;0.00;0.00;;;;;;;14.48;63.54;102366.91;7354338;19;20015;-61
2023/04/18 05:30:14;;;;;;;0.10;0.10;;;;;;;14.45;63.55;102361.69;7357800;19;20082;-61
2023/04/18 05:32:40;;;;;;;0.10;0.10;;;;;;;14.45;63.77;102366.94;7353652;19;20010;-61
2023/04/18 05:35:06;;;;;;;0.00;0.00;;;;;;;14.45;63.55;102362.53;7356412;19;20030;-61
2023/04/18 05:37:32;;;;;;;0.00;0.00;;;;;;;14.45;63.85;102372.19;7356634;19;20681;-61
2023/04/18 05:39:57;;;;;;;0.00;0.00;;;;;;;14.44;63.83;102367.78;7357812;19;20014;-61
2023/04/18 05:42:23;;;;;;;0.00;0.00;;;;;;;14.44;63.82;102370.44;7354897;19;20455;-61
2023/04/18 05:44:48;;;;;;;0.10;0.10;;;;;;;14.44;63.32;102378.31;7356937;19;20042;-61
2023/04/18 05:47:13;;;;;;;0.00;0.00;;;;;;;14.44;63.74;102375.69;7354986;19;20039;-61
2023/04/18 05:49:39;;;;;;;0.03;0.03;;;;;;;14.42;63.45;102382.72;7350232;19;20018;-61
2023/04/18 05:52:04;;;;;;;0.00;0.00;;;;;;;14.42;63.49;102377.47;7354166;19;20038;-61
2023/04/18 05:54:30;;;;;;;0.10;0.10;;;;;;;14.43;63.79;102389.72;7353983;19;21331;-60
2023/04/18 05:56:56;;;;;;;0.05;0.05;;;;;;;14.41;63.92;102392.38;7354845;19;20011;-61
2023/04/18 05:59:21;;;;;;;0.03;0.03;;;;;;;14.40;63.86;102401.16;7344346;19;20022;-61
2023/04/18 06:01:48;;;;;;;0.05;0.05;;;;;;;14.38;63.62;102396.78;7350618;19;20018;-61
2023/04/18 06:04:14;;;;;;;0.10;0.10;;;;;;;14.37;63.93;102389.78;7352461;19;20677;-61
2023/04/18 06:06:40;;;;;;;0.00;0.00;;;;;;;14.36;63.62;102393.31;7350390;19;20844;-61
2023/04/18 06:09:06;;;;;;;0.00;0.00;;;;;;;14.30;63.88;102385.50;7353011;19;20010;-61
2023/04/18 06:11:34;;;;;;;0.00;0.00;;;;;;;14.32;63.76;102392.47;7354049;19;20013;-61
2023/04/18 06:13:59;;;;;;;0.08;0.08;;;;;;;14.35;64.02;102402.09;7347560;19;20360;-62
2023/04/18 06:16:25;;;;;;;0.00;0.00;;;;;;;14.24;63.64;102381.16;7354689;19;20015;-61
2023/04/18 06:18:50;;;;;;;0.10;0.10;;;;;;;14.32;63.78;102402.13;7353352;19;20502;-61
2023/04/18 06:21:16;;;;;;;0.10;0.10;;;;;;;14.21;63.83;102374.19;7348741;19;20017;-62
2023/04/18 06:23:41;;;;;;;0.00;0.00;;;;;;;14.30;64.23;102393.41;7353663;19;20430;-62
2023/04/18 06:26:08;;;;;;;0.10;0.10;;;;;;;14.34;63.74;102400.34;7351274;19;20761;-61
2023/04/18 06:28:33;;;;;;;0.00;0.00;;;;;;;14.34;64.23;102405.59;7348259;19;20022;-61
2023/04/18 06:30:59;;;;;;;0.00;0.00;;;;;;;14.34;63.84;102413.47;7349998;19;20011;-61
2023/04/18 06:33:24;;;;;;;0.00;0.00;;;;;;;14.34;63.97;102411.72;7350671;19;20026;-61
2023/04/18 06:35:50;;;;;;;0.00;0.00;;;;;;;14.33;63.94;102409.97;7350606;19;20036;-61
2023/04/18 06:38:15;;;;;;;0.00;0.00;;;;;;;14.31;63.94;102406.50;7350633;19;20030;-61
2023/04/18 06:40:41;;;;;;;0.10;0.10;;;;;;;14.33;64.17;102403.84;7350470;19;20032;-61
2023/04/18 06:43:06;;;;;;;0.00;0.00;;;;;;;14.34;64.11;102416.97;7346487;19;20767;-61
2023/04/18 06:45:32;;;;;;;0.10;0.10;;;;;;;14.34;64.32;102416.09;7346545;19;20011;-61
2023/04/18 06:47:58;;;;;;;0.03;0.03;;;;;;;14.35;64.43;102417.88;7353380;19;20015;-61
2023/04/18 06:50:25;;;;;;;0.00;0.00;;;;;;;14.36;64.34;102423.09;7348551;19;20396;-61
2023/04/18 06:52:50;;;;;;;0.00;0.00;;;;;;;14.38;64.07;102433.59;7333280;19;20034;-61
2023/04/18 06:55:16;;;;;;;0.00;0.00;;;;;;;14.36;64.26;102419.59;7348788;19;20014;-62
2023/04/18 06:57:42;;;;;;;0.05;0.05;;;;;;;14.42;64.18;102435.28;7349909;19;20055;-62
2023/04/18 07:00:09;;;;;;;0.10;0.10;;;;;;;14.43;63.99;102431.78;7352229;19;21016;-61
2023/04/18 07:02:37;;;;;;;0.00;0.00;;;;;;;14.36;63.75;102411.72;7348532;19;20459;-65
2023/04/18 07:05:02;;;;;;;;;;;;;;;14.50;62.43;102431.75;7333580;19;20003;-66
2023/04/18 07:07:27;;;;;;;0.08;0.08;;;;;;;14.49;63.51;102426.47;7348957;19;19935;-66
2023/04/18 07:09:53;;;;;;;0.10;0.10;;;;;;;14.40;63.70;102416.06;7352977;19;20094;-66
2023/04/18 07:12:19;;;;;;;0.00;0.00;;;;;;;14.49;63.77;102439.63;7350629;19;20477;-66
2023/04/18 07:14:45;;;;;;;0.00;0.00;;;;;;;14.48;63.81;102441.38;7359550;19;20014;-66
2023/04/18 07:17:10;;;;;;;0.00;0.00;;;;;;;14.49;63.31;102444.88;7357848;19;20752;-66
2023/04/18 07:19:36;;;;;;;0.10;0.10;;;;;;;14.48;63.70;102445.78;7359803;19;20552;-66
2023/04/18 07:22:01;;;;;;;0.08;0.08;;;;;;;14.47;63.30;102436.13;7358755;19;20015;-66
2023/04/18 07:24:27;;;;;;;0.05;0.05;;;;;;;14.47;63.25;102438.75;7355173;19;20010;-66
2023/04/18 07:26:52;;;;;;;0.00;0.00;;;;;;;14.47;62.97;102446.63;7359258;19;20014;-65
2023/04/18 07:29:21;;;;;;;0.00;0.00;;;;;;;14.45;63.28;102451.91;7354417;19;20015;-67
2023/04/18 07:31:47;;;;;;;0.00;0.00;;;;;;;14.45;63.25;102456.31;7356257;19;20470;-66
2023/04/18 07:34:13;;;;;;;0.10;0.10;;;;;;;14.45;62.77;102464.19;7360596;19;20022;-66
2023/04/18 07:36:39;;;;;;;0.00;0.00;;;;;;;14.42;62.43;102454.56;7356352;19;20017;-66
2023/04/18 07:39:05;;;;;;;0.10;0.10;;;;;;;14.42;62.56;102456.31;7356275;19;20086;-63
2023/04/18 07:41:31;;;;;;;0.10;0.10;;;;;;;14.42;62.59;102461.59;7351330;19;20525;-66
2023/04/18 07:43:56;;;;;;;0.05;0.05;;;;;;;14.42;62.36;102457.19;7357308;19;20030;-66
2023/04/18 07:46:22;;;;;;;0.00;0.00;;;;;;;14.42;62.48;102458.94;7355357;19;20014;-66
2023/04/18 07:48:47;;;;;;;0.10;0.10;;;;;;;14.45;62.97;102466.81;7361793;19;20702;-66
2023/04/18 07:51:13;;;;;;;0.00;0.00;;;;;;;14.46;62.83;102473.81;7338225;19;20007;-66
2023/04/18 07:53:39;;;;;;;0.00;0.00;;;;;;;14.48;62.61;102474.69;7358109;19;20040;-66
2023/04/18 07:56:05;;;;;;;0.00;0.00;;;;;;;14.47;62.15;102472.91;7347143;19;20015;-66
2023/04/18 07:58:33;;;;;;;0.00;0.00;;;;;;;14.50;62.34;102471.16;7360947;19;20480;-66
2023/04/18 08:00:58;;;;;;;0.10;0.10;;;;;;;14.51;62.05;102472.91;7359630;19;20399;-66
2023/04/18 08:03:24;;;;;;;0.00;0.00;;;;;;;14.55;61.95;102481.63;7356572;19;20014;-66
2023/04/18 08:05:50;;;;;;;0.10;0.10;;;;;;;14.58;62.35;102478.09;7361046;19;20617;-66
2023/04/18 08:08:16;;;;;;;0.10;0.10;;;;;;;14.59;62.32;102475.44;7360126;19;20008;-66
2023/04/18 08:10:41;;;;;;;0.10;0.10;;;;;;;14.65;62.45;102475.41;7361855;19;20394;-66
2023/04/18 08:13:07;;;;;;;0.00;0.00;;;;;;;14.71;62.23;102470.06;7360001;19;20461;-66
2023/04/18 08:15:32;;;;;;;0.00;0.00;;;;;;;14.78;62.25;102476.97;7359258;19;20030;-66
2023/04/18 08:17:59;;;;;;;0.00;0.00;;;;;;;14.84;61.68;102475.16;7358623;19;20027;-66
2023/04/18 08:20:24;;;;;;;0.00;0.00;;;;;;;14.86;61.58;102478.66;7359767;19;20006;-66
2023/04/18 08:22:50;;;;;;;0.00;0.00;;;;;;;14.87;61.47;102477.75;7356678;19;20006;-66
2023/04/18 08:25:16;;;;;;;0.00;0.00;;;;;;;14.92;61.13;102483.84;7359707;19;20014;-66
2023/04/18 08:27:42;;;;;;;0.10;0.10;;;;;;;14.92;60.60;102482.06;7358941;19;20014;-66
2023/04/18 08:30:08;;;;;;;0.00;0.00;;;;;;;14.93;60.53;102491.69;7360392;19;20583;-66
2023/04/18 08:32:35;;;;;;;0.10;0.10;;;;;;;14.90;60.90;102475.06;7356887;19;20034;-66
2023/04/18 08:35:00;;;;;;;0.03;0.03;;;;;;;14.97;61.02;102487.28;7359156;19;20624;-66
2023/04/18 08:37:26;;;;;;;0.10;0.10;;;;;;;15.01;60.86;102481.09;7359450;19;21217;-66
2023/04/18 08:39:52;;;;;;;0.10;0.10;;;;;;;15.06;60.38;102476.66;7359646;19;20018;-66
2023/04/18 08:42:18;;;;;;;0.00;0.00;;;;;;;15.10;60.44;102464.28;7356546;19;20022;-66
2023/04/18 08:44:44;;;;;;;0.10;0.10;;;;;;;15.05;59.97;102453.84;7358134;19;20636;-66
2023/04/18 08:47:11;;;;;;;0.10;0.10;;;;;;;15.17;60.08;102464.22;7356658;19;20030;-64
2023/04/18 08:49:37;;;;;;;0.00;0.00;;;;;;;15.29;59.85;102463.16;7358946;19;20337;-67
2023/04/18 08:52:12;;;;;;;0.00;0.00;;;;;;;15.44;60.28;102467.34;7359378;19;20465;-67
2023/04/18 08:54:41;;;;;;;0.10;0.10;;;;;;;15.55;59.32;102465.41;7358294;19;20002;-67
2023/04/18 08:57:08;;;;;;;0.03;0.03;;;;;;;15.64;59.33;102470.56;7358661;19;19999;-66
2023/04/18 08:59:34;;;;;;;0.00;0.00;;;;;;;15.60;58.77;102446.91;7359419;19;20032;-66
2023/04/18 09:02:01;;;;;;;0.08;0.08;;;;;;;15.78;58.65;102457.19;7358131;19;20878;-67
2023/04/18 09:04:47;;;;;;;0.03;0.03;;;;;;;16.05;58.54;102466.38;7351726;19;20011;-66
2023/04/18 09:07:26;;;;;;;0.00;0.00;;;;;;;16.13;58.70;102464.50;7254031;19;2004390;-66
2023/04/18 09:09:53;;;;;;;0.10;0.10;;;;;;;16.24;58.60;102464.31;7356980;19;20014;-66
2023/04/18 09:12:24;;;;;;;0.00;0.00;;;;;;;16.42;58.32;102476.25;7353180;19;20022;-66
2023/04/18 09:14:53;;;;;;;0.00;0.00;;;;;;;16.52;58.16;102465.50;7356807;19;20018;-67
2023/04/18 09:17:44;;;;;;;0.05;0.05;;;;;;;16.75;58.29;102465.09;7357901;19;20007;-66
2023/04/18 09:20:11;;;;;;;0.00;0.00;;;;;;;16.86;57.04;102467.50;7252902;19;2004513;-67
2023/04/18 09:22:47;;;;;;;0.08;0.08;;;;;;;17.10;57.45;102460.84;7356729;19;20042;-66
2023/04/18 09:25:46;;;;;;;0.10;0.10;;;;;;;17.33;57.97;102469.13;7357937;19;20014;-66
2023/04/18 09:28:31;;;;;;;0.10;0.10;;;;;;;17.59;57.81;102459.75;7253307;19;2004311;-66
2023/04/18 09:31:07;;;;;;;0.00;0.00;;;;;;;17.78;55.96;102460.19;7357991;19;20029;-66
2023/04/18 09:33:33;;;;;;;0.10;0.10;;;;;;;17.85;56.10;102441.50;7359081;19;20505;-66
2023/04/18 09:36:22;;;;;;;0.05;0.05;;;;;;;18.31;56.74;102466.75;7355504;19;20189;-66
2023/04/18 09:38:49;;;;;;;0.10;0.10;;;;;;;18.42;54.17;102467.31;7256134;19;2004749;-67
2023/04/18 09:41:16;;;;;;;0.00;0.00;;;;;;;18.61;54.31;102466.81;7355367;19;21013;-66
2023/04/18 09:43:42;;;;;;;0.08;0.08;;;;;;;18.71;53.87;102455.09;7359303;19;20053;-65
2023/04/18 09:46:08;;;;;;;0.10;0.10;;;;;;;18.97;53.58;102466.69;7355288;19;20018;-66
2023/04/18 09:48:34;;;;;;;0.00;0.00;;;;;;;19.17;53.25;102474.91;7357855;19;20011;-66
2023/04/18 09:51:04;;;;;;;0.10;0.10;;;;;;;19.43;53.55;102472.31;7356857;19;20006;-67
2023/04/18 09:53:30;;;;;;;0.10;0.10;;;;;;;19.58;52.24;102468.31;7358805;19;20018;-67
2023/04/18 09:55:56;;;;;;;0.10;0.10;;;;;;;19.76;52.02;102469.50;7359652;19;22246;-66
2023/04/18 09:58:24;;;;;;;0.10;0.10;;;;;;;19.98;51.56;102468.81;7355220;19;20021;-66
2023/04/18 10:00:50;;;;;;;;;;;;;;;20.35;55.11;102476.34;7358118;19;20014;-66
2023/04/18 10:03:17;;;;;;;0.10;0.10;;;;;;;20.44;50.82;102468.94;7356144;19;19940;-67
2023/04/18 10:05:44;;;;;;;0.10;0.10;;;;;;;20.55;50.12;102470.38;7356803;19;20653;-66
2023/04/18 10:08:12;;;;;;;0.10;0.10;;;;;;;20.62;49.09;102455.94;7358866;19;20003;-67
2023/04/18 10:10:37;;;;;;;0.10;0.10;;;;;;;20.77;48.40;102468.66;7352072;19;20006;-66
2023/04/18 10:13:05;;;;;;;0.10;0.10;;;;;;;20.94;49.09;102479.53;7359479;19;20364;-67
2023/04/18 10:15:31;;;;;;;;;;;;;;;21.31;53.44;102478.13;7357687;19;20011;-67
2023/04/18 10:18:02;;;;;;;0.10;0.10;;;;;;;21.43;47.96;102474.09;7357036;19;21036;-67
2023/04/18 10:20:29;;;;;;;0.10;0.10;;;;;;;21.62;46.27;102471.56;7356762;19;20729;-67
2023/04/18 10:22:55;;;;;;;;;;;;;;;22.00;51.96;102468.19;7354274;19;20026;-66
2023/04/18 10:25:33;;;;;;;0.10;0.10;;;;;;;22.19;49.63;102476.25;7355620;19;19918;-66
2023/04/18 10:28:00;;;;;;;0.10;0.10;;;;;;;22.31;45.82;102477.53;7357228;19;20014;-66
2023/04/18 10:30:45;;;;;;;;;;;;;;;22.63;50.35;102481.44;7357716;19;20480;-66
2023/04/18 10:33:32;;;;;;;0.10;0.10;;;;;;;22.87;48.84;102482.13;7355533;19;20276;-66
2023/04/18 10:36:02;;;;;;;0.08;0.08;;;;;;;23.09;45.52;102486.47;7353992;19;20032;-66
2023/04/18 10:38:28;;;;;;;0.20;0.20;;;;;;;23.10;44.44;102466.88;7352984;19;20003;-66
2023/04/18 10:41:24;;;;;;;0.10;0.10;;;;;;;23.60;47.08;102476.91;7350258;19;20565;-66
2023/04/18 10:44:07;;;;;;;0.10;0.10;;;;;;;23.88;46.32;102482.63;7253507;19;2005137;-66
2023/04/18 10:46:37;;;;;;;0.10;0.10;;;;;;;23.94;41.80;102468.97;7346472;19;20048;-66
2023/04/18 10:49:14;;;;;;;0.10;0.10;;;;;;;24.27;43.87;102481.50;7355298;19;20007;-66
2023/04/18 10:51:39;;;;;;;0.10;0.10;;;;;;;24.27;41.13;102476.19;7363234;19;20010;-66
2023/04/18 10:54:08;;;;;;;0.10;0.10;;;;;;;24.39;41.87;102483.59;7360788;19;20558;-66
2023/04/18 10:56:33;;;;;;;0.10;0.10;;;;;;;24.36;41.00;102474.88;7363815;19;20367;-66
2023/04/18 10:59:01;;;;;;;0.10;0.10;;;;;;;24.38;41.49;102481.88;7361322;19;20018;-66
2023/04/18 11:01:31;;;;;;;0.10;0.10;;;;;;;24.24;40.56;102457.66;7361192;19;20042;-66
2023/04/18 11:03:56;;;;;;;0.10;0.10;;;;;;;24.25;40.08;102475.41;7362252;19;20007;-65
2023/04/18 11:06:22;;;;;;;0.10;0.10;;;;;;;24.13;40.38;102465.34;7358322;19;20454;-66
2023/04/18 11:08:48;;;;;;;0.10;0.10;;;;;;;23.99;41.34;102464.28;7362165;19;20011;-65
2023/04/18 11:11:14;;;;;;;0.10;0.10;;;;;;;23.97;39.67;102476.81;7354780;19;20028;-66
2023/04/18 11:13:57;;;;;;;0.10;0.10;;;;;;;23.95;42.18;102473.38;7356292;19;20010;-66
2023/04/18 11:16:32;;;;;;;0.10;0.10;;;;;;;23.82;40.69;102472.25;7357776;19;20467;-66
2023/04/18 11:18:58;;;;;;;0.00;0.00;;;;;;;23.64;39.57;102479.38;7357803;19;20002;-66
2023/04/18 11:21:27;;;;;;;0.10;0.10;;;;;;;23.26;40.50;102422.56;7358181;19;20030;-66
2023/04/18 11:23:55;;;;;;;0.10;0.10;;;;;;;23.41;39.72;102472.47;7358467;19;20018;-66
2023/04/18 11:26:27;;;;;;;0.10;0.10;;;;;;;23.21;40.96;102456.56;7355088;19;20028;-65